Time;durP1;ratioP1;P1;durP2;ratioP2;P2;SDS_P1;SDS_P2;PMS_P1;PMS_P2;Temp;Humidity;BMP_temperature;BMP_pressure;BME280_temperature;BME280_humidity;BME280_pressure;Samples;Min_cycle;Max_cycle;Signal;HPM_P1;HPM_P2
2023/08/09 00:00:47;;;;;;;5.97;1.67;;;13.00;99.90;;;;;;5085690;28;20070;-62
2023/08/09 00:03:12;;;;;;;2.95;1.17;;;13.00;99.90;;;;;;5091886;28;20043;-62
2023/08/09 00:05:38;;;;;;;5.20;1.60;;;13.00;99.90;;;;;;5092136;28;20555;-62
2023/08/09 00:08:04;;;;;;;5.50;1.52;;;12.90;99.90;;;;;;5088741;28;20496;-62
2023/08/09 00:10:30;;;;;;;6.43;1.80;;;12.90;99.90;;;;;;5086054;28;20063;-62
2023/08/09 00:12:56;;;;;;;3.47;1.80;;;12.90;99.90;;;;;;5080251;28;20061;-61
2023/08/09 00:15:21;;;;;;;10.88;2.70;;;12.80;99.90;;;;;;5087644;28;20036;-62
2023/08/09 00:17:47;;;;;;;3.85;1.42;;;12.80;99.90;;;;;;5078062;28;20094;-62
2023/08/09 00:20:13;;;;;;;6.18;1.95;;;12.80;99.90;;;;;;5088174;28;20542;-62
2023/08/09 00:22:40;;;;;;;3.85;1.23;;;12.70;99.90;;;;;;5088791;28;20070;-62
2023/08/09 00:25:07;;;;;;;2.67;1.45;;;12.70;99.90;;;;;;5082488;28;20051;-62
2023/08/09 00:27:33;;;;;;;5.30;1.58;;;12.60;99.90;;;;;;5087462;28;20114;-62
2023/08/09 00:29:59;;;;;;;3.97;1.58;;;12.60;99.90;;;;;;5086844;28;20115;-62
2023/08/09 00:32:24;;;;;;;5.28;1.70;;;12.60;99.90;;;;;;5084742;28;20055;-62
2023/08/09 00:34:50;;;;;;;4.57;1.60;;;12.60;99.90;;;;;;5085690;28;20562;-62
2023/08/09 00:37:16;;;;;;;4.55;1.52;;;12.60;99.90;;;;;;5076992;28;20056;-63
2023/08/09 00:39:42;;;;;;;4.38;2.00;;;12.60;99.90;;;;;;5075071;28;20039;-62
2023/08/09 00:42:08;;;;;;;5.53;1.40;;;12.50;99.90;;;;;;5086555;28;20500;-62
2023/08/09 00:44:34;;;;;;;5.22;1.63;;;12.40;99.90;;;;;;5082112;28;20077;-62
2023/08/09 00:47:00;;;;;;;3.20;1.60;;;12.40;99.90;;;;;;5079753;28;20406;-62
2023/08/09 00:49:27;;;;;;;5.82;1.95;;;12.30;99.90;;;;;;5086450;28;20040;-62
2023/08/09 00:51:52;;;;;;;3.78;2.25;;;12.30;99.90;;;;;;5064821;28;20040;-62
2023/08/09 00:54:19;;;;;;;2.45;1.30;;;12.30;99.90;;;;;;5080052;28;20543;-63
2023/08/09 00:56:46;;;;;;;2.40;1.25;;;12.20;99.90;;;;;;5083582;28;20071;-62
2023/08/09 00:59:12;;;;;;;3.60;1.60;;;12.20;99.90;;;;;;5080994;28;20097;-62
2023/08/09 01:01:39;;;;;;;4.50;1.92;;;12.20;99.90;;;;;;5069215;28;20040;-62
2023/08/09 01:04:05;;;;;;;6.53;2.63;;;12.20;99.90;;;;;;5077380;28;20048;-62
2023/08/09 01:07:09;;;;;;;2.90;1.23;;;12.20;99.90;;;;;;5085345;28;20039;-62
2023/08/09 01:09:38;;;;;;;;;;;12.10;99.90;;;;;;5077650;28;20384;-62
2023/08/09 01:12:14;;;;;;;3.33;1.50;;;12.00;99.90;;;;;;5079951;28;19923;-62
2023/08/09 01:14:50;;;;;;;3.33;2.00;;;12.00;99.90;;;;;;5085078;28;20429;-63
2023/08/09 01:17:16;;;;;;;4.70;1.50;;;12.00;99.90;;;;;;5079320;28;20412;-61
2023/08/09 01:19:48;;;;;;;5.40;1.75;;;11.90;99.90;;;;;;5090090;28;20036;-62
2023/08/09 01:22:26;;;;;;;3.08;1.50;;;11.90;99.90;;;;;;5068715;28;20502;-62
2023/08/09 01:24:52;;;;;;;3.55;1.60;;;11.90;99.90;;;;;;5084280;28;20391;-62
2023/08/09 01:27:18;;;;;;;3.72;1.50;;;11.90;99.90;;;;;;5080243;28;20039;-62
2023/08/09 01:29:44;;;;;;;3.45;1.58;;;11.80;99.90;;;;;;5079194;28;20040;-62
2023/08/09 01:32:11;;;;;;;2.28;1.42;;;11.80;99.90;;;;;;5081218;28;20041;-62
2023/08/09 01:34:37;;;;;;;4.88;1.50;;;11.80;99.90;;;;;;5084259;28;20052;-62
2023/08/09 01:37:24;;;;;;;6.38;1.38;;;11.80;99.90;;;;;;5076433;28;20100;-62
2023/08/09 01:39:52;;;;;;;3.60;1.75;;;11.80;99.90;;;;;;5078193;28;20051;-62
2023/08/09 01:42:19;;;;;;;3.58;1.42;;;11.80;99.90;;;;;;5078318;28;20143;-62
2023/08/09 01:44:46;;;;;;;3.83;1.15;;;11.70;99.90;;;;;;5084208;28;20040;-62
2023/08/09 01:47:13;;;;;;;3.28;1.45;;;11.70;99.90;;;;;;5065721;28;20066;-61
2023/08/09 01:49:44;;;;;;;2.88;1.30;;;11.70;99.90;;;;;;5085505;28;20569;-62
2023/08/09 01:52:11;;;;;;;2.95;1.60;;;11.60;99.90;;;;;;5079165;28;20571;-61
2023/08/09 01:54:37;;;;;;;4.57;1.73;;;11.60;99.90;;;;;;5086272;28;20040;-62
2023/08/09 01:57:03;;;;;;;7.03;1.60;;;11.60;99.90;;;;;;5087039;28;20084;-62
2023/08/09 01:59:29;;;;;;;2.13;1.35;;;11.50;99.90;;;;;;5073614;28;20036;-62
2023/08/09 02:01:54;;;;;;;2.40;1.75;;;11.50;99.90;;;;;;5079358;28;20501;-62
2023/08/09 02:04:20;;;;;;;4.10;1.48;;;11.50;99.90;;;;;;5086981;28;20043;-62
2023/08/09 02:06:46;;;;;;;5.15;1.50;;;11.50;99.90;;;;;;5088696;28;20090;-62
2023/08/09 02:09:12;;;;;;;3.67;1.65;;;11.50;99.90;;;;;;5089206;28;20077;-63
2023/08/09 02:11:38;;;;;;;3.70;1.33;;;11.50;99.90;;;;;;5086419;28;20063;-62
2023/08/09 02:14:04;;;;;;;3.75;1.60;;;11.50;99.90;;;;;;5090942;28;20556;-62
2023/08/09 02:16:29;;;;;;;3.05;1.63;;;11.50;99.90;;;;;;5083757;28;20039;-61
2023/08/09 02:18:55;;;;;;;3.92;1.60;;;11.50;99.90;;;;;;5089907;28;20031;-62
2023/08/09 02:21:21;;;;;;;4.45;1.75;;;11.50;99.90;;;;;;5081763;28;20093;-62
2023/08/09 02:23:48;;;;;;;4.53;1.83;;;11.50;99.90;;;;;;5090700;28;20419;-62
2023/08/09 02:26:15;;;;;;;8.32;2.40;;;11.40;99.90;;;;;;5089352;28;20059;-61
2023/08/09 02:28:41;;;;;;;5.43;1.88;;;11.40;99.90;;;;;;5085908;28;20044;-62
2023/08/09 02:31:08;;;;;;;4.03;1.52;;;11.40;99.90;;;;;;5088740;28;20035;-63
2023/08/09 02:33:34;;;;;;;3.83;1.50;;;11.30;99.90;;;;;;5088456;28;20048;-62
2023/08/09 02:36:02;;;;;;;4.38;1.60;;;11.30;99.90;;;;;;5093738;28;20040;-62
2023/08/09 02:38:28;;;;;;;4.53;1.73;;;11.30;99.90;;;;;;5079791;28;20041;-62
2023/08/09 02:40:55;;;;;;;2.65;1.50;;;11.30;99.90;;;;;;5071817;28;20040;-62
2023/08/09 02:43:24;;;;;;;4.18;1.88;;;11.20;99.90;;;;;;5063489;28;20433;-62
2023/08/09 02:45:50;;;;;;;5.72;2.00;;;11.20;99.90;;;;;;5070653;28;20044;-61
2023/08/09 02:48:16;;;;;;;4.65;1.90;;;11.20;99.90;;;;;;5081403;28;20109;-62
2023/08/09 02:50:42;;;;;;;2.75;1.27;;;11.20;99.90;;;;;;5091897;28;20076;-62
2023/08/09 02:53:08;;;;;;;5.70;1.90;;;11.10;99.90;;;;;;5084853;28;20039;-62
2023/08/09 02:55:35;;;;;;;2.58;1.50;;;11.10;99.90;;;;;;5068500;28;20047;-62
2023/08/09 02:58:03;;;;;;;3.58;1.80;;;11.10;99.90;;;;;;5081007;28;20042;-62
2023/08/09 03:00:29;;;;;;;4.88;1.98;;;11.10;99.90;;;;;;5088289;28;20043;-62
2023/08/09 03:02:55;;;;;;;4.20;1.63;;;11.10;99.90;;;;;;5083930;28;20498;-61
2023/08/09 03:05:21;;;;;;;3.00;1.48;;;11.10;99.90;;;;;;5083989;28;20044;-61
2023/08/09 03:07:46;;;;;;;3.72;1.50;;;11.00;99.90;;;;;;5077461;28;20414;-62
2023/08/09 03:10:12;;;;;;;3.95;1.45;;;11.00;99.90;;;;;;5083418;28;20241;-61
2023/08/09 03:12:38;;;;;;;3.80;1.40;;;11.00;99.90;;;;;;5060126;28;20048;-61
2023/08/09 03:15:05;;;;;;;5.25;1.38;;;11.00;99.90;;;;;;5083009;28;20596;-62
2023/08/09 03:17:31;;;;;;;2.92;1.27;;;11.00;99.90;;;;;;5085104;28;20048;-62
2023/08/09 03:19:57;;;;;;;2.38;1.30;;;10.90;99.90;;;;;;5084295;28;20055;-61
2023/08/09 03:22:23;;;;;;;4.57;1.38;;;10.90;99.90;;;;;;5082658;28;20632;-61
2023/08/09 03:24:50;;;;;;;3.30;1.50;;;10.90;99.90;;;;;;5089638;28;20048;-61
2023/08/09 03:27:16;;;;;;;3.80;1.48;;;10.90;99.90;;;;;;5080979;28;20115;-62
2023/08/09 03:29:43;;;;;;;5.93;1.80;;;10.90;99.90;;;;;;5079132;28;20045;-62
2023/08/09 03:32:09;;;;;;;4.38;1.80;;;10.90;99.90;;;;;;5081081;28;20040;-61
2023/08/09 03:34:35;;;;;;;6.03;1.90;;;10.90;99.90;;;;;;5082732;28;20131;-62
2023/08/09 03:37:01;;;;;;;3.42;1.70;;;10.90;99.90;;;;;;5080748;28;20040;-62
2023/08/09 03:39:27;;;;;;;4.80;2.10;;;10.90;99.90;;;;;;5085878;28;21199;-62
2023/08/09 03:41:52;;;;;;;4.82;1.80;;;10.90;99.90;;;;;;5077410;28;20070;-62
2023/08/09 03:44:18;;;;;;;2.72;1.52;;;10.90;99.90;;;;;;5046728;28;20038;-62
2023/08/09 03:46:44;;;;;;;3.78;1.80;;;10.80;99.90;;;;;;5078644;28;20454;-61
2023/08/09 03:49:10;;;;;;;6.78;1.85;;;10.80;99.90;;;;;;5079815;28;20067;-61
2023/08/09 03:51:36;;;;;;;3.85;1.90;;;10.80;99.90;;;;;;5084272;28;20036;-62
2023/08/09 03:54:01;;;;;;;4.82;2.00;;;10.80;99.90;;;;;;5083701;28;20036;-62
2023/08/09 03:56:27;;;;;;;2.75;1.42;;;10.80;99.90;;;;;;5068314;28;20050;-62
2023/08/09 03:58:53;;;;;;;6.57;1.90;;;10.90;99.90;;;;;;5079126;28;20121;-61
2023/08/09 04:01:19;;;;;;;4.60;1.80;;;10.80;99.90;;;;;;5082656;28;20032;-61
2023/08/09 04:03:44;;;;;;;2.45;1.70;;;10.80;99.90;;;;;;5082311;28;20075;-63
2023/08/09 04:06:14;;;;;;;7.80;2.38;;;10.80;99.90;;;;;;5069240;28;20070;-62
2023/08/09 04:08:40;;;;;;;4.35;1.95;;;10.80;99.90;;;;;;5080023;28;20036;-63
2023/08/09 04:11:07;;;;;;;4.50;1.88;;;10.80;99.90;;;;;;5067530;28;20093;-63
2023/08/09 04:13:33;;;;;;;3.65;1.85;;;10.80;99.90;;;;;;5084912;28;20054;-63
2023/08/09 04:15:59;;;;;;;3.95;1.90;;;10.80;99.90;;;;;;5065091;28;20039;-62
2023/08/09 04:18:25;;;;;;;6.15;2.20;;;10.80;99.90;;;;;;5081022;28;20055;-63
2023/08/09 04:20:51;;;;;;;2.85;1.70;;;10.80;99.90;;;;;;5083614;28;20032;-63
2023/08/09 04:23:18;;;;;;;3.92;1.80;;;10.80;99.90;;;;;;5064347;28;20039;-63
2023/08/09 04:25:44;;;;;;;4.38;1.80;;;10.80;99.90;;;;;;5084262;28;20052;-63
2023/08/09 04:28:10;;;;;;;8.90;1.98;;;10.90;99.90;;;;;;5098725;27;20074;-63
2023/08/09 04:30:36;;;;;;;6.20;2.03;;;10.90;99.90;;;;;;5083769;28;20044;-63
2023/08/09 04:33:03;;;;;;;3.13;1.90;;;10.90;99.90;;;;;;5084243;28;20036;-63
2023/08/09 04:35:33;;;;;;;3.83;1.63;;;11.00;99.90;;;;;;5088310;28;20702;-63
2023/08/09 04:38:04;;;;;;;4.63;2.03;;;11.00;99.90;;;;;;5079617;28;20036;-62
2023/08/09 04:40:32;;;;;;;3.35;1.85;;;11.10;99.90;;;;;;5077560;28;20044;-63
2023/08/09 04:42:57;;;;;;;4.32;1.60;;;11.10;99.90;;;;;;5074380;28;20617;-63
2023/08/09 04:45:24;;;;;;;6.20;1.90;;;11.10;99.90;;;;;;5089465;28;20050;-63
2023/08/09 04:47:52;;;;;;;3.58;2.05;;;11.20;99.90;;;;;;5083511;28;20748;-62
2023/08/09 04:50:19;;;;;;;6.43;1.90;;;11.20;99.90;;;;;;5087665;28;20526;-63
2023/08/09 04:52:45;;;;;;;4.25;1.60;;;11.20;99.90;;;;;;5079604;28;20115;-63
2023/08/09 04:55:11;;;;;;;5.82;1.80;;;11.30;99.90;;;;;;5077074;28;20416;-63
2023/08/09 04:57:38;;;;;;;4.63;2.10;;;11.20;99.90;;;;;;5082069;28;20125;-63
2023/08/09 05:00:10;;;;;;;3.97;1.67;;;11.30;99.90;;;;;;5079914;28;20134;-63
2023/08/09 05:02:36;;;;;;;2.65;1.63;;;11.30;99.90;;;;;;5079357;28;20494;-62
2023/08/09 05:05:06;;;;;;;4.57;2.00;;;11.30;99.90;;;;;;5084074;28;20040;-63
2023/08/09 05:07:32;;;;;;;5.07;1.95;;;11.30;99.90;;;;;;5088192;28;20039;-62
2023/08/09 05:09:59;;;;;;;7.28;2.03;;;11.30;99.90;;;;;;5081088;28;20045;-62
2023/08/09 05:12:25;;;;;;;2.83;1.55;;;11.40;99.90;;;;;;5084655;28;20407;-63
2023/08/09 05:14:51;;;;;;;2.47;1.58;;;11.50;99.90;;;;;;5076718;28;20048;-63
2023/08/09 05:17:16;;;;;;;7.05;2.10;;;11.60;99.90;;;;;;5080429;28;20482;-63
2023/08/09 05:19:42;;;;;;;4.30;1.70;;;11.70;99.90;;;;;;5080118;28;20067;-63
2023/08/09 05:22:08;;;;;;;4.15;1.50;;;11.70;99.90;;;;;;5092339;28;20090;-63
2023/08/09 05:24:34;;;;;;;3.17;1.63;;;11.80;99.90;;;;;;5046741;28;20048;-63
2023/08/09 05:26:59;;;;;;;4.75;1.90;;;11.90;99.90;;;;;;5077682;28;20530;-63
2023/08/09 05:29:25;;;;;;;6.43;2.25;;;12.00;99.90;;;;;;5085007;28;20043;-63
2023/08/09 05:31:51;;;;;;;5.85;2.00;;;12.00;99.90;;;;;;5067519;28;20040;-63
2023/08/09 05:34:16;;;;;;;6.35;1.88;;;12.10;99.90;;;;;;5079590;28;20123;-63
2023/08/09 05:36:44;;;;;;;5.28;1.80;;;12.20;99.90;;;;;;5084303;28;20056;-65
2023/08/09 05:39:09;;;;;;;4.22;1.95;;;12.30;99.90;;;;;;5049258;28;20043;-63
2023/08/09 05:41:35;;;;;;;4.07;1.60;;;12.40;99.90;;;;;;5083898;28;20047;-62
2023/08/09 05:44:01;;;;;;;3.05;1.60;;;12.50;99.90;;;;;;5079331;28;20039;-62
2023/08/09 05:46:27;;;;;;;3.63;1.33;;;12.60;99.90;;;;;;5085181;28;20056;-63
2023/08/09 05:48:53;;;;;;;3.58;1.52;;;12.70;99.90;;;;;;5089481;28;20039;-62
2023/08/09 05:51:19;;;;;;;3.72;1.98;;;12.80;99.90;;;;;;5086381;28;20043;-62
2023/08/09 05:53:45;;;;;;;4.07;1.65;;;12.80;99.90;;;;;;5088687;28;20119;-63
2023/08/09 05:56:10;;;;;;;6.80;1.42;;;12.90;99.90;;;;;;5063229;28;20071;-63
2023/08/09 05:58:36;;;;;;;4.65;1.70;;;13.00;99.90;;;;;;5079329;28;20585;-63
2023/08/09 06:01:05;;;;;;;3.58;1.48;;;13.10;99.90;;;;;;5062200;28;20051;-63
2023/08/09 06:03:31;;;;;;;3.58;1.40;;;13.30;99.90;;;;;;5068005;28;20518;-62
2023/08/09 06:06:00;;;;;;;6.45;1.50;;;13.40;99.90;;;;;;5083301;28;20054;-62
2023/08/09 06:08:26;;;;;;;6.15;2.00;;;13.50;99.90;;;;;;5087174;28;20386;-63
2023/08/09 06:10:52;;;;;;;7.82;2.63;;;13.60;99.90;;;;;;5083303;28;20135;-63
2023/08/09 06:13:18;;;;;;;3.88;1.92;;;13.70;99.90;;;;;;5066054;28;20078;-62
2023/08/09 06:15:44;;;;;;;4.50;1.40;;;13.90;99.90;;;;;;5077888;28;20726;-63
2023/08/09 06:18:10;;;;;;;3.08;1.40;;;14.10;99.90;;;;;;5080312;28;20047;-63
2023/08/09 06:20:36;;;;;;;5.50;1.40;;;14.20;99.90;;;;;;5079839;28;20070;-63
2023/08/09 06:23:01;;;;;;;3.65;1.48;;;14.40;99.90;;;;;;5075277;28;20118;-63
2023/08/09 06:25:27;;;;;;;5.63;1.20;;;14.50;99.90;;;;;;5079969;28;20039;-63
2023/08/09 06:27:54;;;;;;;4.03;1.55;;;14.60;99.90;;;;;;5067670;28;20083;-63
2023/08/09 06:30:20;;;;;;;3.30;1.30;;;14.70;99.90;;;;;;5076356;28;20359;-63
2023/08/09 06:32:46;;;;;;;6.63;1.92;;;14.80;99.90;;;;;;5081462;28;20580;-63
2023/08/09 06:35:12;;;;;;;2.50;1.13;;;14.90;99.90;;;;;;5083340;28;20032;-63
2023/08/09 06:37:38;;;;;;;5.07;1.67;;;15.10;99.90;;;;;;5063480;28;20037;-63
2023/08/09 06:40:07;;;;;;;3.90;1.48;;;15.20;99.90;;;;;;5081246;28;20048;-63
2023/08/09 06:42:33;;;;;;;3.05;1.30;;;15.30;99.90;;;;;;5087992;28;20036;-63
2023/08/09 06:44:59;;;;;;;2.25;1.15;;;15.40;99.90;;;;;;5088137;28;20128;-63
2023/08/09 06:47:24;;;;;;;4.57;1.58;;;15.50;99.90;;;;;;5090588;28;20421;-63
2023/08/09 06:49:50;;;;;;;6.10;1.30;;;15.70;99.90;;;;;;5087437;28;20036;-63
2023/08/09 06:52:16;;;;;;;6.00;1.70;;;15.70;99.90;;;;;;5067760;28;20032;-63
2023/08/09 06:54:42;;;;;;;2.40;1.45;;;15.90;99.90;;;;;;5067395;28;20483;-62
2023/08/09 06:57:08;;;;;;;4.03;1.00;;;16.00;99.90;;;;;;5068566;28;20166;-63
2023/08/09 06:59:34;;;;;;;5.68;1.05;;;16.10;99.90;;;;;;5064839;28;20043;-63
2023/08/09 07:02:00;;;;;;;5.93;1.38;;;16.20;99.90;;;;;;5084180;28;20039;-63
2023/08/09 07:04:26;;;;;;;3.35;1.10;;;16.30;99.90;;;;;;5084382;28;20036;-64
2023/08/09 07:06:52;;;;;;;2.90;1.38;;;16.40;99.90;;;;;;5081541;28;20033;-62
2023/08/09 07:09:18;;;;;;;5.07;1.27;;;16.50;99.90;;;;;;5082539;28;20036;-62
2023/08/09 07:11:47;;;;;;;5.40;1.60;;;16.60;99.90;;;;;;5077617;28;20129;-63
2023/08/09 07:14:13;;;;;;;3.95;1.05;;;16.70;99.90;;;;;;5055970;28;20491;-63
2023/08/09 07:16:39;;;;;;;3.75;1.40;;;16.70;99.90;;;;;;5083665;28;20040;-62
2023/08/09 07:19:04;;;;;;;3.30;1.20;;;16.80;99.90;;;;;;5080414;28;20040;-63
2023/08/09 07:21:30;;;;;;;3.85;1.60;;;16.90;99.90;;;;;;5084483;28;20040;-63
2023/08/09 07:23:56;;;;;;;3.70;1.20;;;17.00;99.90;;;;;;5083675;28;20040;-63
2023/08/09 07:26:21;;;;;;;5.78;1.65;;;17.10;99.90;;;;;;5064742;28;20036;-62
2023/08/09 07:28:47;;;;;;;2.28;1.00;;;17.20;99.90;;;;;;5082906;28;20039;-62
2023/08/09 07:31:18;;;;;;;4.65;1.20;;;17.20;99.90;;;;;;5078444;28;20537;-63
2023/08/09 07:33:44;;;;;;;6.32;1.25;;;17.30;99.90;;;;;;5082732;28;20054;-63
2023/08/09 07:36:10;;;;;;;4.88;1.00;;;17.40;99.90;;;;;;5085239;28;20049;-63
2023/08/09 07:38:36;;;;;;;2.83;1.15;;;17.50;99.90;;;;;;5079444;28;20059;-63
2023/08/09 07:41:03;;;;;;;4.88;1.48;;;17.60;99.90;;;;;;5087457;28;20482;-62
2023/08/09 07:43:28;;;;;;;3.28;1.38;;;17.80;99.90;;;;;;5080420;28;20112;-63
2023/08/09 07:45:54;;;;;;;3.75;1.23;;;17.90;99.90;;;;;;5081106;28;20547;-62
2023/08/09 07:48:20;;;;;;;3.83;1.15;;;17.90;99.90;;;;;;5070890;28;20131;-63
2023/08/09 07:50:46;;;;;;;3.50;1.00;;;18.00;99.90;;;;;;5091039;28;20043;-63
2023/08/09 07:53:12;;;;;;;3.70;1.20;;;17.90;99.90;;;;;;5081550;28;20067;-63
2023/08/09 07:55:39;;;;;;;4.15;1.30;;;17.90;99.90;;;;;;5079767;28;20579;-62
2023/08/09 07:58:05;;;;;;;2.53;1.20;;;17.90;99.90;;;;;;5076922;28;20387;-63
2023/08/09 08:00:31;;;;;;;4.20;1.20;;;17.90;99.90;;;;;;5081997;28;20040;-64
2023/08/09 08:02:57;;;;;;;4.72;1.40;;;17.90;99.90;;;;;;5081978;28;20048;-65
2023/08/09 08:05:23;;;;;;;7.95;1.35;;;18.10;99.90;;;;;;5067388;28;20426;-61
2023/08/09 08:07:49;;;;;;;6.38;1.40;;;18.20;99.90;;;;;;5083945;28;20040;-61
2023/08/09 08:10:14;;;;;;;7.50;1.70;;;18.30;99.90;;;;;;5081173;28;20475;-64
2023/08/09 08:12:43;;;;;;;4.57;1.10;;;18.30;99.90;;;;;;5083624;28;20182;-62
2023/08/09 08:15:09;;;;;;;4.55;1.00;;;18.40;99.90;;;;;;5063353;28;20044;-62
2023/08/09 08:17:35;;;;;;;2.97;1.05;;;18.30;99.90;;;;;;5079552;28;20506;-62
2023/08/09 08:20:05;;;;;;;11.90;1.80;;;18.30;99.90;;;;;;5076809;28;20147;-62
2023/08/09 08:22:31;;;;;;;5.60;1.40;;;18.30;99.90;;;;;;5083544;28;20052;-65
2023/08/09 08:24:57;;;;;;;3.97;1.17;;;18.50;99.90;;;;;;5074111;28;20047;-63
2023/08/09 08:27:25;;;;;;;2.30;1.23;;;18.50;99.90;;;;;;5054039;28;20173;-62
2023/08/09 08:29:54;;;;;;;4.45;1.08;;;18.60;99.90;;;;;;5084343;28;20036;-62
2023/08/09 08:32:20;;;;;;;2.22;0.98;;;18.70;99.90;;;;;;5078881;28;20032;-61
2023/08/09 08:34:47;;;;;;;3.35;1.15;;;18.70;99.90;;;;;;5080320;28;20051;-61
2023/08/09 08:37:13;;;;;;;1.65;0.90;;;18.90;99.90;;;;;;5060259;28;20536;-62
2023/08/09 08:39:38;;;;;;;3.38;0.98;;;18.80;99.90;;;;;;5079835;28;20038;-62
2023/08/09 08:42:04;;;;;;;2.90;1.08;;;18.90;99.90;;;;;;5081385;28;20070;-61
2023/08/09 08:44:31;;;;;;;4.43;1.45;;;19.10;99.90;;;;;;5083852;28;20111;-63
2023/08/09 08:46:59;;;;;;;4.38;1.27;;;19.00;99.90;;;;;;5076276;28;20158;-61
2023/08/09 08:49:29;;;;;;;2.42;0.90;;;19.20;99.90;;;;;;5083486;28;20040;-61
2023/08/09 08:51:58;;;;;;;4.32;1.27;;;19.20;99.90;;;;;;5082539;28;20044;-64
2023/08/09 08:54:24;;;;;;;6.53;1.17;;;19.40;99.90;;;;;;5078879;28;20051;-60
2023/08/09 08:56:50;;;;;;;6.40;1.70;;;19.40;99.90;;;;;;5083647;28;20044;-61
2023/08/09 08:59:16;;;;;;;3.70;1.00;;;19.40;99.50;;;;;;5074083;28;20039;-63
2023/08/09 09:01:42;;;;;;;4.32;1.13;;;19.50;99.90;;;;;;5086713;28;20067;-59
2023/08/09 09:04:08;;;;;;;8.38;1.15;;;19.40;99.70;;;;;;5083646;28;20672;-61
2023/08/09 09:06:34;;;;;;;3.67;0.98;;;19.50;99.90;;;;;;5075334;28;20035;-63
2023/08/09 09:09:00;;;;;;;3.80;1.20;;;19.50;98.70;;;;;;5072496;28;20474;-60
2023/08/09 09:11:26;;;;;;;3.85;0.88;;;19.40;98.20;;;;;;5085903;28;20040;-60
2023/08/09 09:13:52;;;;;;;1.48;0.77;;;19.30;98.50;;;;;;5090609;28;20024;-60
2023/08/09 09:16:19;;;;;;;2.05;1.20;;;19.20;99.40;;;;;;5081404;28;20051;-60
2023/08/09 09:18:46;;;;;;;4.00;1.25;;;19.30;99.50;;;;;;5073407;28;20044;-61
2023/08/09 09:21:14;;;;;;;1.90;0.88;;;19.30;99.40;;;;;;5085158;28;20115;-62
2023/08/09 09:23:40;;;;;;;2.38;0.80;;;19.20;99.60;;;;;;5079449;28;20052;-63
2023/08/09 09:26:15;;;;;;;6.35;1.20;;;19.30;99.70;;;;;;5071840;28;20040;-60
2023/08/09 09:28:44;;;;;;;7.38;1.38;;;19.50;99.90;;;;;;5080422;28;20032;-62
2023/08/09 09:31:12;;;;;;;4.68;1.17;;;19.60;99.60;;;;;;5083375;28;20044;-62
2023/08/09 09:33:43;;;;;;;3.47;1.30;;;19.60;99.40;;;;;;5084762;28;20119;-63
2023/08/09 09:36:12;;;;;;;3.28;1.10;;;19.80;99.90;;;;;;5079154;28;20044;-60
2023/08/09 09:38:39;;;;;;;2.83;1.10;;;19.90;99.10;;;;;;5092065;28;20037;-62
2023/08/09 09:41:07;;;;;;;2.33;0.90;;;20.00;99.20;;;;;;5078485;28;20048;-59
2023/08/09 09:43:38;;;;;;;4.38;1.30;;;19.90;98.60;;;;;;5080183;28;20044;-61
2023/08/09 09:46:15;;;;;;;3.75;1.33;;;20.00;99.10;;;;;;5084823;28;20044;-63
2023/08/09 09:48:47;;;;;;;2.22;0.88;;;20.00;99.00;;;;;;5071825;28;20111;-64
2023/08/09 09:51:16;;;;;;;3.67;1.10;;;19.80;99.00;;;;;;5083999;28;20098;-60
2023/08/09 09:53:42;;;;;;;3.25;1.00;;;19.50;98.70;;;;;;5079492;28;20032;-60
2023/08/09 09:56:09;;;;;;;2.75;1.33;;;19.70;98.80;;;;;;5078832;28;20407;-62
2023/08/09 09:58:42;;;;;;;2.40;0.90;;;19.70;98.20;;;;;;5061088;28;20140;-62
2023/08/09 10:01:14;;;;;;;2.53;1.00;;;19.70;98.90;;;;;;5079474;28;20059;-59
2023/08/09 10:03:43;;;;;;;2.45;1.13;;;19.60;99.20;;;;;;5079257;28;20096;-60
2023/08/09 10:06:15;;;;;;;2.67;0.95;;;19.70;99.10;;;;;;5078194;28;20049;-62
2023/08/09 10:08:41;;;;;;;4.18;1.05;;;19.90;99.20;;;;;;5083378;28;20653;-63
2023/08/09 10:11:09;;;;;;;5.97;1.95;;;19.90;99.10;;;;;;5085059;28;20082;-59
2023/08/09 10:13:39;;;;;;;2.53;1.10;;;20.00;99.10;;;;;;5076649;28;20094;-60
2023/08/09 10:16:07;;;;;;;3.40;1.10;;;20.00;98.60;;;;;;5086171;28;20105;-59
2023/08/09 10:18:51;;;;;;;3.67;1.10;;;19.90;98.80;;;;;;5087796;28;20513;-62
2023/08/09 10:21:18;;;;;;;3.60;1.10;;;19.90;98.80;;;;;;5078755;28;20040;-62
2023/08/09 10:24:07;;;;;;;4.43;1.13;;;19.90;99.10;;;;;;5070230;28;20147;-62
2023/08/09 10:26:46;;;;;;;2.38;0.85;;;19.90;99.40;;;;;;5084301;28;20040;-64
2023/08/09 10:29:21;;;;;;;2.53;1.00;;;20.10;99.70;;;;;;5077652;28;20043;-61
2023/08/09 10:31:48;;;;;;;4.53;1.17;;;20.10;98.80;;;;;;5090329;28;20051;-63
2023/08/09 10:34:15;;;;;;;4.47;1.35;;;20.00;99.00;;;;;;5087631;28;20102;-63
2023/08/09 10:36:43;;;;;;;1.85;1.02;;;19.90;99.10;;;;;;5090382;28;20656;-64
2023/08/09 10:39:17;;;;;;;5.78;1.42;;;20.00;99.60;;;;;;5084915;28;20101;-64
2023/08/09 10:41:56;;;;;;;3.35;1.30;;;20.10;99.90;;;;;;5090212;28;20058;-63
2023/08/09 10:44:38;;;;;;;2.05;1.08;;;19.90;99.70;;;;;;5106534;27;20109;-64
2023/08/09 10:47:18;;;;;;;4.45;1.15;;;19.70;99.90;;;;;;5091437;28;20054;-63
2023/08/09 10:49:46;;;;;;;1.98;1.20;;;19.80;99.90;;;;;;5087759;28;20044;-63
2023/08/09 10:52:17;;;;;;;3.50;1.30;;;19.60;99.90;;;;;;5088783;28;20036;-63
2023/08/09 10:54:43;;;;;;;1.95;0.90;;;19.60;99.90;;;;;;5097847;28;20380;-64
2023/08/09 10:57:10;;;;;;;2.95;1.20;;;19.60;99.90;;;;;;5070816;28;20039;-64
2023/08/09 10:59:38;;;;;;;3.13;1.40;;;19.60;99.90;;;;;;5084624;28;20052;-64
2023/08/09 11:02:05;;;;;;;2.47;1.33;;;19.50;99.90;;;;;;5088126;28;20043;-64
2023/08/09 11:04:30;;;;;;;2.85;1.13;;;19.40;99.90;;;;;;5088518;28;20703;-64
2023/08/09 11:06:56;;;;;;;4.63;1.40;;;19.30;99.90;;;;;;5069770;28;20037;-64
2023/08/09 11:09:23;;;;;;;2.40;1.30;;;19.40;99.90;;;;;;5083380;28;20479;-64
2023/08/09 11:11:50;;;;;;;4.68;1.20;;;19.30;99.90;;;;;;5067035;28;20028;-64
2023/08/09 11:14:21;;;;;;;7.57;1.65;;;19.30;99.90;;;;;;5081367;28;20028;-64
2023/08/09 11:16:48;;;;;;;2.60;1.33;;;19.50;99.90;;;;;;5082088;28;20062;-64
2023/08/09 11:19:16;;;;;;;3.97;1.42;;;19.60;99.90;;;;;;5084251;28;20047;-64
2023/08/09 11:21:54;;;;;;;2.10;1.20;;;19.80;99.90;;;;;;5088178;28;20633;-64
2023/08/09 11:24:26;;;;;;;3.88;1.48;;;19.90;99.90;;;;;;5065679;28;20093;-64
2023/08/09 11:26:57;;;;;;;2.53;1.30;;;19.70;99.90;;;;;;5086873;28;20085;-64
2023/08/09 11:29:28;;;;;;;5.95;1.50;;;19.70;99.90;;;;;;5081019;28;20051;-64
2023/08/09 11:31:56;;;;;;;5.22;1.98;;;19.70;99.90;;;;;;5077251;28;20036;-64
2023/08/09 11:34:24;;;;;;;2.95;1.40;;;19.60;99.90;;;;;;5084689;28;20074;-63
2023/08/09 11:36:52;;;;;;;3.95;1.60;;;19.40;99.90;;;;;;5082964;28;20859;-61
2023/08/09 11:39:21;;;;;;;3.25;1.25;;;19.20;99.90;;;;;;5083801;28;20040;-63
2023/08/09 11:41:54;;;;;;;2.90;1.08;;;19.10;99.90;;;;;;5080998;28;20036;-63
2023/08/09 11:44:21;;;;;;;;;;;19.10;99.90;;;;;;5070446;28;20634;-64
2023/08/09 11:46:47;;;;;;;5.90;1.45;;;19.20;99.90;;;;;;5085523;28;19963;-63
2023/08/09 11:49:13;;;;;;;5.45;1.60;;;19.20;99.90;;;;;;5079704;28;20097;-63
2023/08/09 11:51:38;;;;;;;5.57;1.48;;;19.30;99.90;;;;;;5079906;28;20055;-63
2023/08/09 11:54:08;;;;;;;3.38;1.20;;;19.30;99.90;;;;;;5070498;28;20039;-63
2023/08/09 11:56:36;;;;;;;4.82;1.38;;;19.30;99.90;;;;;;5085753;28;20051;-64
2023/08/09 11:59:04;;;;;;;5.10;1.55;;;19.60;99.40;;;;;;5082710;28;20072;-63
2023/08/09 12:01:36;;;;;;;3.28;1.35;;;19.90;99.20;;;;;;5085049;28;20051;-63
2023/08/09 12:04:08;;;;;;;4.95;1.30;;;20.30;99.50;;;;;;5101330;27;20127;-63
2023/08/09 12:06:40;;;;;;;5.47;1.48;;;20.60;98.60;;;;;;5088590;28;20146;-63
2023/08/09 12:09:36;;;;;;;6.68;1.90;;;20.90;98.40;;;;;;5083810;28;20059;-63
2023/08/09 12:12:11;;;;;;;5.50;1.27;;;21.00;98.30;;;;;;5086939;28;20036;-63
2023/08/09 12:14:42;;;;;;;8.38;1.60;;;21.00;96.50;;;;;;5085411;28;20555;-63
2023/08/09 12:17:19;;;;;;;5.50;1.33;;;21.00;97.80;;;;;;5080971;28;20532;-64
2023/08/09 12:19:45;;;;;;;6.68;1.55;;;21.20;98.30;;;;;;5074779;28;20036;-64
2023/08/09 12:22:11;;;;;;;4.22;1.23;;;21.30;98.70;;;;;;5085454;28;20050;-64
2023/08/09 12:24:36;;;;;;;7.53;1.60;;;21.20;98.50;;;;;;5082687;28;20036;-61
2023/08/09 12:27:03;;;;;;;4.00;1.23;;;21.20;98.20;;;;;;5082206;28;20055;-64
2023/08/09 12:29:29;;;;;;;5.50;1.40;;;20.90;96.70;;;;;;5061377;28;20051;-63
2023/08/09 12:31:55;;;;;;;3.53;1.50;;;20.60;97.60;;;;;;5084458;28;20093;-63
2023/08/09 12:34:21;;;;;;;5.90;1.55;;;20.40;97.80;;;;;;5066169;28;20040;-64
2023/08/09 12:36:47;;;;;;;5.10;1.58;;;20.70;98.00;;;;;;5066268;28;20411;-62
2023/08/09 12:39:14;;;;;;;7.65;1.83;;;20.60;97.70;;;;;;5075970;28;20040;-62
2023/08/09 12:41:41;;;;;;;7.85;2.20;;;20.40;98.50;;;;;;5084253;28;20040;-64
2023/08/09 12:44:07;;;;;;;5.72;1.70;;;20.60;98.80;;;;;;5082045;28;20494;-64
2023/08/09 12:46:34;;;;;;;4.88;1.50;;;20.90;98.70;;;;;;5085066;28;20055;-63
2023/08/09 12:48:59;;;;;;;5.63;1.58;;;20.50;97.80;;;;;;5065127;28;20040;-64